sensor_id;sensor_type;location;lat;lon;timestamp;P1;durP1;ratioP1;P2;durP2;ratioP2
50126;SDS011;36024;47.974;16.398;2023-11-22T00:00:18;5.37;;;4.87;;
50126;SDS011;36024;47.974;16.398;2023-11-22T00:02:47;5.73;;;5.07;;
50126;SDS011;36024;47.974;16.398;2023-11-22T00:05:14;5.83;;;5.17;;
50126;SDS011;36024;47.974;16.398;2023-11-22T00:07:40;6.53;;;5.90;;
50126;SDS011;36024;47.974;16.398;2023-11-22T00:10:08;6.43;;;5.10;;
50126;SDS011;36024;47.974;16.398;2023-11-22T00:12:35;5.53;;;5.00;;
50126;SDS011;36024;47.974;16.398;2023-11-22T00:15:05;6.60;;;5.60;;
50126;SDS011;36024;47.974;16.398;2023-11-22T00:17:33;7.70;;;5.90;;
50126;SDS011;36024;47.974;16.398;2023-11-22T00:20:01;7.03;;;6.33;;
50126;SDS011;36024;47.974;16.398;2023-11-22T00:22:32;7.27;;;6.57;;
50126;SDS011;36024;47.974;16.398;2023-11-22T00:24:59;7.30;;;6.60;;
50126;SDS011;36024;47.974;16.398;2023-11-22T00:27:30;7.37;;;6.67;;
50126;SDS011;36024;47.974;16.398;2023-11-22T00:30:00;7.80;;;7.00;;
50126;SDS011;36024;47.974;16.398;2023-11-22T00:32:27;7.37;;;6.67;;
50126;SDS011;36024;47.974;16.398;2023-11-22T00:34:54;7.60;;;6.80;;
50126;SDS011;36024;47.974;16.398;2023-11-22T00:37:20;8.30;;;7.50;;
50126;SDS011;36024;47.974;16.398;2023-11-22T00:39:47;8.57;;;7.70;;
50126;SDS011;36024;47.974;16.398;2023-11-22T00:42:14;7.93;;;7.23;;
50126;SDS011;36024;47.974;16.398;2023-11-22T00:44:41;8.73;;;7.83;;
50126;SDS011;36024;47.974;16.398;2023-11-22T00:47:08;8.17;;;7.37;;
50126;SDS011;36024;47.974;16.398;2023-11-22T00:49:35;8.70;;;7.90;;
50126;SDS011;36024;47.974;16.398;2023-11-22T00:52:02;9.33;;;8.43;;
50126;SDS011;36024;47.974;16.398;2023-11-22T00:54:29;9.60;;;8.50;;
50126;SDS011;36024;47.974;16.398;2023-11-22T00:56:56;9.63;;;8.63;;
50126;SDS011;36024;47.974;16.398;2023-11-22T00:59:23;9.97;;;8.97;;
50126;SDS011;36024;47.974;16.398;2023-11-22T01:01:50;9.70;;;8.80;;
50126;SDS011;36024;47.974;16.398;2023-11-22T01:04:16;11.13;;;10.03;;
50126;SDS011;36024;47.974;16.398;2023-11-22T01:06:43;10.60;;;9.50;;
50126;SDS011;36024;47.974;16.398;2023-11-22T01:09:10;10.23;;;9.30;;
50126;SDS011;36024;47.974;16.398;2023-11-22T01:11:40;10.73;;;9.67;;
50126;SDS011;36024;47.974;16.398;2023-11-22T01:14:07;10.57;;;9.57;;
50126;SDS011;36024;47.974;16.398;2023-11-22T01:16:34;11.00;;;9.90;;
50126;SDS011;36024;47.974;16.398;2023-11-22T01:19:03;10.53;;;9.30;;
50126;SDS011;36024;47.974;16.398;2023-11-22T01:21:30;10.57;;;9.50;;
50126;SDS011;36024;47.974;16.398;2023-11-22T01:23:57;10.97;;;9.87;;
50126;SDS011;36024;47.974;16.398;2023-11-22T01:26:25;10.57;;;9.47;;
50126;SDS011;36024;47.974;16.398;2023-11-22T01:28:52;10.83;;;9.80;;
50126;SDS011;36024;47.974;16.398;2023-11-22T01:31:18;10.03;;;9.00;;
50126;SDS011;36024;47.974;16.398;2023-11-22T01:33:47;10.73;;;9.67;;
50126;SDS011;36024;47.974;16.398;2023-11-22T01:36:14;11.00;;;9.90;;
50126;SDS011;36024;47.974;16.398;2023-11-22T01:38:44;10.57;;;9.57;;
50126;SDS011;36024;47.974;16.398;2023-11-22T01:41:12;10.43;;;9.40;;
50126;SDS011;36024;47.974;16.398;2023-11-22T01:43:40;9.50;;;8.60;;
50126;SDS011;36024;47.974;16.398;2023-11-22T01:46:08;8.63;;;7.73;;
50126;SDS011;36024;47.974;16.398;2023-11-22T01:48:35;9.37;;;8.47;;
50126;SDS011;36024;47.974;16.398;2023-11-22T01:51:03;8.77;;;7.97;;
50126;SDS011;36024;47.974;16.398;2023-11-22T01:53:30;9.03;;;8.17;;
50126;SDS011;36024;47.974;16.398;2023-11-22T01:55:58;8.57;;;7.67;;
50126;SDS011;36024;47.974;16.398;2023-11-22T01:58:25;8.33;;;7.53;;
50126;SDS011;36024;47.974;16.398;2023-11-22T02:00:53;7.40;;;6.70;;
50126;SDS011;36024;47.974;16.398;2023-11-22T02:03:21;6.77;;;6.13;;
50126;SDS011;36024;47.974;16.398;2023-11-22T02:05:48;6.50;;;5.77;;
50126;SDS011;36024;47.974;16.398;2023-11-22T02:08:16;6.70;;;6.07;;
50126;SDS011;36024;47.974;16.398;2023-11-22T02:10:45;6.00;;;5.40;;
50126;SDS011;36024;47.974;16.398;2023-11-22T02:13:15;5.37;;;4.87;;
50126;SDS011;36024;47.974;16.398;2023-11-22T02:15:42;5.73;;;5.10;;
50126;SDS011;36024;47.974;16.398;2023-11-22T02:18:09;5.97;;;5.00;;
50126;SDS011;36024;47.974;16.398;2023-11-22T02:20:39;5.10;;;4.60;;
50126;SDS011;36024;47.974;16.398;2023-11-22T02:23:08;6.20;;;4.40;;
50126;SDS011;36024;47.974;16.398;2023-11-22T02:25:36;4.93;;;4.43;;
50126;SDS011;36024;47.974;16.398;2023-11-22T02:28:02;5.57;;;4.70;;
50126;SDS011;36024;47.974;16.398;2023-11-22T02:30:30;5.10;;;4.60;;
50126;SDS011;36024;47.974;16.398;2023-11-22T02:32:58;4.93;;;4.47;;
50126;SDS011;36024;47.974;16.398;2023-11-22T02:35:24;4.67;;;4.27;;
50126;SDS011;36024;47.974;16.398;2023-11-22T02:37:53;5.23;;;4.67;;
50126;SDS011;36024;47.974;16.398;2023-11-22T02:40:21;4.73;;;4.33;;
50126;SDS011;36024;47.974;16.398;2023-11-22T02:42:48;5.13;;;4.63;;
50126;SDS011;36024;47.974;16.398;2023-11-22T02:45:16;5.23;;;4.77;;
50126;SDS011;36024;47.974;16.398;2023-11-22T02:47:44;5.33;;;4.83;;
50126;SDS011;36024;47.974;16.398;2023-11-22T02:50:13;6.00;;;5.40;;
50126;SDS011;36024;47.974;16.398;2023-11-22T02:52:40;5.70;;;5.20;;
50126;SDS011;36024;47.974;16.398;2023-11-22T02:55:08;5.20;;;4.70;;
50126;SDS011;36024;47.974;16.398;2023-11-22T02:57:38;7.70;;;5.07;;
50126;SDS011;36024;47.974;16.398;2023-11-22T03:00:09;5.93;;;5.33;;
50126;SDS011;36024;47.974;16.398;2023-11-22T03:02:42;5.60;;;5.10;;
50126;SDS011;36024;47.974;16.398;2023-11-22T03:05:09;6.27;;;5.37;;
50126;SDS011;36024;47.974;16.398;2023-11-22T03:07:37;6.07;;;5.40;;
50126;SDS011;36024;47.974;16.398;2023-11-22T03:10:04;5.80;;;5.17;;
50126;SDS011;36024;47.974;16.398;2023-11-22T03:12:34;6.00;;;5.20;;
50126;SDS011;36024;47.974;16.398;2023-11-22T03:15:01;5.60;;;5.10;;
50126;SDS011;36024;47.974;16.398;2023-11-22T03:17:28;5.53;;;5.03;;
50126;SDS011;36024;47.974;16.398;2023-11-22T03:19:56;6.43;;;5.33;;
50126;SDS011;36024;47.974;16.398;2023-11-22T03:22:27;5.73;;;5.23;;
50126;SDS011;36024;47.974;16.398;2023-11-22T03:25:00;6.53;;;5.93;;
50126;SDS011;36024;47.974;16.398;2023-11-22T03:27:26;6.10;;;5.40;;
50126;SDS011;36024;47.974;16.398;2023-11-22T03:29:53;9.00;;;5.93;;
50126;SDS011;36024;47.974;16.398;2023-11-22T03:32:21;5.80;;;5.30;;
50126;SDS011;36024;47.974;16.398;2023-11-22T03:34:48;5.47;;;4.90;;
50126;SDS011;36024;47.974;16.398;2023-11-22T03:37:15;6.10;;;5.50;;
50126;SDS011;36024;47.974;16.398;2023-11-22T03:39:43;5.30;;;4.80;;
50126;SDS011;36024;47.974;16.398;2023-11-22T03:42:15;6.07;;;5.47;;
50126;SDS011;36024;47.974;16.398;2023-11-22T03:44:45;5.50;;;5.00;;
50126;SDS011;36024;47.974;16.398;2023-11-22T03:47:11;5.60;;;5.10;;
50126;SDS011;36024;47.974;16.398;2023-11-22T03:49:40;5.47;;;4.97;;
50126;SDS011;36024;47.974;16.398;2023-11-22T03:52:07;5.13;;;4.73;;
50126;SDS011;36024;47.974;16.398;2023-11-22T03:54:34;6.57;;;4.87;;
50126;SDS011;36024;47.974;16.398;2023-11-22T03:57:01;6.80;;;5.57;;
50126;SDS011;36024;47.974;16.398;2023-11-22T03:59:28;6.30;;;5.63;;
50126;SDS011;36024;47.974;16.398;2023-11-22T04:01:55;6.03;;;5.43;;
50126;SDS011;36024;47.974;16.398;2023-11-22T04:04:23;6.57;;;5.63;;
50126;SDS011;36024;47.974;16.398;2023-11-22T04:06:50;6.30;;;5.70;;
50126;SDS011;36024;47.974;16.398;2023-11-22T04:09:16;6.83;;;6.10;;
50126;SDS011;36024;47.974;16.398;2023-11-22T04:11:43;6.83;;;6.13;;
50126;SDS011;36024;47.974;16.398;2023-11-22T04:14:10;7.00;;;6.27;;
50126;SDS011;36024;47.974;16.398;2023-11-22T04:16:37;6.33;;;5.83;;
50126;SDS011;36024;47.974;16.398;2023-11-22T04:19:04;6.97;;;6.30;;
50126;SDS011;36024;47.974;16.398;2023-11-22T04:21:31;6.50;;;5.87;;
50126;SDS011;36024;47.974;16.398;2023-11-22T04:23:58;6.90;;;6.23;;
50126;SDS011;36024;47.974;16.398;2023-11-22T04:26:25;6.47;;;5.87;;
50126;SDS011;36024;47.974;16.398;2023-11-22T04:28:53;6.10;;;5.50;;
50126;SDS011;36024;47.974;16.398;2023-11-22T04:31:19;6.50;;;5.90;;
50126;SDS011;36024;47.974;16.398;2023-11-22T04:33:46;7.20;;;5.83;;
50126;SDS011;36024;47.974;16.398;2023-11-22T04:36:13;5.80;;;5.30;;
50126;SDS011;36024;47.974;16.398;2023-11-22T04:38:40;6.00;;;5.40;;
50126;SDS011;36024;47.974;16.398;2023-11-22T04:41:06;6.33;;;5.73;;
50126;SDS011;36024;47.974;16.398;2023-11-22T04:43:34;6.20;;;5.60;;
50126;SDS011;36024;47.974;16.398;2023-11-22T04:46:01;6.23;;;5.70;;
50126;SDS011;36024;47.974;16.398;2023-11-22T04:48:27;5.83;;;5.33;;
50126;SDS011;36024;47.974;16.398;2023-11-22T04:50:54;6.23;;;5.73;;
50126;SDS011;36024;47.974;16.398;2023-11-22T04:53:21;6.30;;;5.77;;
50126;SDS011;36024;47.974;16.398;2023-11-22T04:55:48;6.20;;;5.63;;
50126;SDS011;36024;47.974;16.398;2023-11-22T04:58:15;6.47;;;5.83;;
50126;SDS011;36024;47.974;16.398;2023-11-22T05:00:42;6.30;;;5.33;;
50126;SDS011;36024;47.974;16.398;2023-11-22T05:03:08;6.40;;;5.80;;
50126;SDS011;36024;47.974;16.398;2023-11-22T05:05:35;5.87;;;5.27;;
50126;SDS011;36024;47.974;16.398;2023-11-22T05:08:02;6.27;;;5.67;;
50126;SDS011;36024;47.974;16.398;2023-11-22T05:10:29;5.90;;;5.30;;
50126;SDS011;36024;47.974;16.398;2023-11-22T05:12:56;6.40;;;5.77;;
50126;SDS011;36024;47.974;16.398;2023-11-22T05:15:26;6.40;;;5.80;;
50126;SDS011;36024;47.974;16.398;2023-11-22T05:17:54;7.20;;;6.10;;
50126;SDS011;36024;47.974;16.398;2023-11-22T05:20:20;6.30;;;5.70;;
50126;SDS011;36024;47.974;16.398;2023-11-22T05:22:47;6.80;;;6.10;;
50126;SDS011;36024;47.974;16.398;2023-11-22T05:25:14;6.40;;;5.80;;
50126;SDS011;36024;47.974;16.398;2023-11-22T05:27:41;6.40;;;5.80;;
50126;SDS011;36024;47.974;16.398;2023-11-22T05:30:08;6.33;;;5.73;;
50126;SDS011;36024;47.974;16.398;2023-11-22T05:32:37;6.80;;;6.20;;
50126;SDS011;36024;47.974;16.398;2023-11-22T05:35:04;6.60;;;6.00;;
50126;SDS011;36024;47.974;16.398;2023-11-22T05:37:36;6.77;;;6.03;;
50126;SDS011;36024;47.974;16.398;2023-11-22T05:40:04;6.90;;;6.20;;
50126;SDS011;36024;47.974;16.398;2023-11-22T05:42:31;7.77;;;6.43;;
50126;SDS011;36024;47.974;16.398;2023-11-22T05:44:58;6.87;;;6.27;;
50126;SDS011;36024;47.974;16.398;2023-11-22T05:47:25;6.60;;;5.90;;
50126;SDS011;36024;47.974;16.398;2023-11-22T05:49:52;5.73;;;5.23;;
50126;SDS011;36024;47.974;16.398;2023-11-22T05:52:18;6.10;;;5.50;;
50126;SDS011;36024;47.974;16.398;2023-11-22T05:54:47;6.63;;;6.03;;
50126;SDS011;36024;47.974;16.398;2023-11-22T05:57:14;6.07;;;5.47;;
50126;SDS011;36024;47.974;16.398;2023-11-22T05:59:41;6.30;;;5.70;;
50126;SDS011;36024;47.974;16.398;2023-11-22T06:02:08;6.23;;;5.63;;
50126;SDS011;36024;47.974;16.398;2023-11-22T06:04:35;5.77;;;5.27;;
50126;SDS011;36024;47.974;16.398;2023-11-22T06:07:04;6.17;;;5.50;;
50126;SDS011;36024;47.974;16.398;2023-11-22T06:09:31;5.63;;;5.10;;
50126;SDS011;36024;47.974;16.398;2023-11-22T06:11:58;6.10;;;5.50;;
50126;SDS011;36024;47.974;16.398;2023-11-22T06:14:24;5.87;;;5.27;;
50126;SDS011;36024;47.974;16.398;2023-11-22T06:16:51;6.47;;;5.87;;
50126;SDS011;36024;47.974;16.398;2023-11-22T06:19:18;6.30;;;5.70;;
50126;SDS011;36024;47.974;16.398;2023-11-22T06:21:44;6.63;;;5.93;;
50126;SDS011;36024;47.974;16.398;2023-11-22T06:24:12;6.80;;;6.10;;
50126;SDS011;36024;47.974;16.398;2023-11-22T06:26:43;6.37;;;5.77;;
50126;SDS011;36024;47.974;16.398;2023-11-22T06:29:10;6.43;;;5.83;;
50126;SDS011;36024;47.974;16.398;2023-11-22T06:31:37;7.00;;;6.30;;
50126;SDS011;36024;47.974;16.398;2023-11-22T06:34:05;7.07;;;6.37;;
50126;SDS011;36024;47.974;16.398;2023-11-22T06:36:32;7.10;;;6.40;;
50126;SDS011;36024;47.974;16.398;2023-11-22T06:38:59;7.27;;;6.57;;
50126;SDS011;36024;47.974;16.398;2023-11-22T06:41:26;7.17;;;6.10;;
50126;SDS011;36024;47.974;16.398;2023-11-22T06:43:52;6.83;;;6.13;;
50126;SDS011;36024;47.974;16.398;2023-11-22T06:46:19;6.67;;;6.00;;
50126;SDS011;36024;47.974;16.398;2023-11-22T06:48:46;7.00;;;6.30;;
50126;SDS011;36024;47.974;16.398;2023-11-22T06:51:15;7.07;;;6.23;;
50126;SDS011;36024;47.974;16.398;2023-11-22T06:53:44;6.53;;;5.93;;
50126;SDS011;36024;47.974;16.398;2023-11-22T06:56:11;6.97;;;5.70;;
50126;SDS011;36024;47.974;16.398;2023-11-22T06:58:38;6.87;;;6.10;;
50126;SDS011;36024;47.974;16.398;2023-11-22T07:01:05;7.33;;;6.63;;
50126;SDS011;36024;47.974;16.398;2023-11-22T07:03:33;8.57;;;7.67;;
50126;SDS011;36024;47.974;16.398;2023-11-22T07:06:02;7.17;;;6.53;;
50126;SDS011;36024;47.974;16.398;2023-11-22T07:08:30;7.40;;;6.70;;
50126;SDS011;36024;47.974;16.398;2023-11-22T07:10:57;7.07;;;6.27;;
50126;SDS011;36024;47.974;16.398;2023-11-22T07:13:24;7.10;;;6.40;;
50126;SDS011;36024;47.974;16.398;2023-11-22T07:15:50;6.57;;;5.97;;
50126;SDS011;36024;47.974;16.398;2023-11-22T07:18:18;6.90;;;6.20;;
50126;SDS011;36024;47.974;16.398;2023-11-22T07:20:45;8.13;;;6.00;;
50126;SDS011;36024;47.974;16.398;2023-11-22T07:23:14;6.03;;;5.40;;
50126;SDS011;36024;47.974;16.398;2023-11-22T07:25:42;6.63;;;5.90;;
50126;SDS011;36024;47.974;16.398;2023-11-22T07:28:10;6.80;;;6.10;;
50126;SDS011;36024;47.974;16.398;2023-11-22T07:30:36;7.30;;;6.43;;
50126;SDS011;36024;47.974;16.398;2023-11-22T07:33:06;7.77;;;6.53;;
50126;SDS011;36024;47.974;16.398;2023-11-22T07:35:33;7.20;;;6.50;;
50126;SDS011;36024;47.974;16.398;2023-11-22T07:38:00;7.00;;;6.30;;
50126;SDS011;36024;47.974;16.398;2023-11-22T07:40:27;7.10;;;6.40;;
50126;SDS011;36024;47.974;16.398;2023-11-22T07:42:54;9.63;;;6.93;;
50126;SDS011;36024;47.974;16.398;2023-11-22T07:45:21;8.70;;;7.70;;
50126;SDS011;36024;47.974;16.398;2023-11-22T07:47:49;9.13;;;7.10;;
50126;SDS011;36024;47.974;16.398;2023-11-22T07:50:15;8.10;;;7.07;;
50126;SDS011;36024;47.974;16.398;2023-11-22T07:52:42;9.00;;;8.10;;
50126;SDS011;36024;47.974;16.398;2023-11-22T07:55:10;10.83;;;9.83;;
50126;SDS011;36024;47.974;16.398;2023-11-22T07:57:37;8.43;;;7.60;;
50126;SDS011;36024;47.974;16.398;2023-11-22T08:00:05;8.40;;;7.13;;
50126;SDS011;36024;47.974;16.398;2023-11-22T08:02:37;7.90;;;7.10;;
50126;SDS011;36024;47.974;16.398;2023-11-22T08:05:09;11.53;;;7.30;;
50126;SDS011;36024;47.974;16.398;2023-11-22T08:07:36;9.53;;;7.53;;
50126;SDS011;36024;47.974;16.398;2023-11-22T08:10:07;9.63;;;7.20;;
50126;SDS011;36024;47.974;16.398;2023-11-22T08:12:46;8.30;;;7.23;;
50126;SDS011;36024;47.974;16.398;2023-11-22T08:15:14;8.00;;;7.20;;
50126;SDS011;36024;47.974;16.398;2023-11-22T08:17:44;9.23;;;7.50;;
50126;SDS011;36024;47.974;16.398;2023-11-22T08:20:11;8.60;;;7.50;;
50126;SDS011;36024;47.974;16.398;2023-11-22T08:22:44;8.87;;;7.97;;
50126;SDS011;36024;47.974;16.398;2023-11-22T08:25:17;9.07;;;7.93;;
50126;SDS011;36024;47.974;16.398;2023-11-22T08:27:44;8.50;;;7.70;;
50126;SDS011;36024;47.974;16.398;2023-11-22T08:30:11;8.83;;;7.93;;
50126;SDS011;36024;47.974;16.398;2023-11-22T08:32:43;9.33;;;7.90;;
50126;SDS011;36024;47.974;16.398;2023-11-22T08:35:14;8.57;;;7.73;;
50126;SDS011;36024;47.974;16.398;2023-11-22T08:37:43;8.80;;;7.70;;
50126;SDS011;36024;47.974;16.398;2023-11-22T08:40:10;10.03;;;8.10;;
50126;SDS011;36024;47.974;16.398;2023-11-22T08:42:47;8.87;;;7.97;;
50126;SDS011;36024;47.974;16.398;2023-11-22T08:45:14;9.07;;;8.17;;
50126;SDS011;36024;47.974;16.398;2023-11-22T08:47:42;9.57;;;8.57;;
50126;SDS011;36024;47.974;16.398;2023-11-22T08:50:09;10.20;;;8.40;;
50126;SDS011;36024;47.974;16.398;2023-11-22T08:52:39;10.63;;;8.20;;
50126;SDS011;36024;47.974;16.398;2023-11-22T08:55:06;9.03;;;8.13;;
50126;SDS011;36024;47.974;16.398;2023-11-22T08:57:37;10.80;;;9.03;;
50126;SDS011;36024;47.974;16.398;2023-11-22T09:00:04;8.80;;;7.87;;
50126;SDS011;36024;47.974;16.398;2023-11-22T09:02:36;9.27;;;8.03;;
50126;SDS011;36024;47.974;16.398;2023-11-22T09:05:04;9.80;;;8.30;;
50126;SDS011;36024;47.974;16.398;2023-11-22T09:07:34;8.77;;;7.87;;
50126;SDS011;36024;47.974;16.398;2023-11-22T09:10:02;8.90;;;8.00;;
50126;SDS011;36024;47.974;16.398;2023-11-22T09:12:37;8.93;;;8.03;;
50126;SDS011;36024;47.974;16.398;2023-11-22T09:15:07;8.50;;;7.70;;
50126;SDS011;36024;47.974;16.398;2023-11-22T09:17:39;12.50;;;9.80;;
50126;SDS011;36024;47.974;16.398;2023-11-22T09:20:10;8.77;;;7.83;;
50126;SDS011;36024;47.974;16.398;2023-11-22T09:22:41;10.13;;;8.63;;
50126;SDS011;36024;47.974;16.398;2023-11-22T09:25:15;8.60;;;7.70;;
50126;SDS011;36024;47.974;16.398;2023-11-22T09:27:49;11.63;;;8.43;;
50126;SDS011;36024;47.974;16.398;2023-11-22T09:30:29;8.87;;;7.97;;
50126;SDS011;36024;47.974;16.398;2023-11-22T09:33:05;10.63;;;9.60;;
50126;SDS011;36024;47.974;16.398;2023-11-22T09:35:34;10.23;;;9.10;;
50126;SDS011;36024;47.974;16.398;2023-11-22T09:38:02;10.30;;;7.80;;
50126;SDS011;36024;47.974;16.398;2023-11-22T09:40:31;8.20;;;7.50;;
50126;SDS011;36024;47.974;16.398;2023-11-22T09:43:02;8.27;;;7.47;;
50126;SDS011;36024;47.974;16.398;2023-11-22T09:45:30;9.27;;;7.07;;
50126;SDS011;36024;47.974;16.398;2023-11-22T09:47:57;7.23;;;6.53;;
50126;SDS011;36024;47.974;16.398;2023-11-22T09:53:11;7.67;;;6.83;;
50126;SDS011;36024;47.974;16.398;2023-11-22T09:55:41;7.23;;;6.53;;
50126;SDS011;36024;47.974;16.398;2023-11-22T09:58:10;7.20;;;6.50;;
50126;SDS011;36024;47.974;16.398;2023-11-22T10:00:38;6.67;;;6.07;;
50126;SDS011;36024;47.974;16.398;2023-11-22T10:03:07;6.40;;;5.80;;
50126;SDS011;36024;47.974;16.398;2023-11-22T10:05:39;6.73;;;6.03;;
50126;SDS011;36024;47.974;16.398;2023-11-22T10:08:08;6.20;;;5.40;;
50126;SDS011;36024;47.974;16.398;2023-11-22T10:10:37;6.33;;;5.67;;
50126;SDS011;36024;47.974;16.398;2023-11-22T10:13:04;5.90;;;5.40;;
50126;SDS011;36024;47.974;16.398;2023-11-22T10:15:30;5.50;;;5.00;;
50126;SDS011;36024;47.974;16.398;2023-11-22T10:17:58;5.87;;;5.27;;
50126;SDS011;36024;47.974;16.398;2023-11-22T10:20:40;6.03;;;5.40;;
50126;SDS011;36024;47.974;16.398;2023-11-22T10:23:14;6.20;;;5.50;;
50126;SDS011;36024;47.974;16.398;2023-11-22T10:25:47;5.30;;;4.80;;
50126;SDS011;36024;47.974;16.398;2023-11-22T10:28:16;5.83;;;5.00;;
50126;SDS011;36024;47.974;16.398;2023-11-22T10:30:46;5.43;;;4.93;;
50126;SDS011;36024;47.974;16.398;2023-11-22T10:33:14;4.97;;;4.50;;
50126;SDS011;36024;47.974;16.398;2023-11-22T10:35:45;5.00;;;4.60;;
50126;SDS011;36024;47.974;16.398;2023-11-22T10:38:13;4.97;;;4.57;;
50126;SDS011;36024;47.974;16.398;2023-11-22T10:40:41;5.17;;;4.67;;
50126;SDS011;36024;47.974;16.398;2023-11-22T10:43:12;4.33;;;3.93;;
50126;SDS011;36024;47.974;16.398;2023-11-22T10:45:39;4.70;;;4.30;;
50126;SDS011;36024;47.974;16.398;2023-11-22T10:48:13;4.90;;;4.40;;
50126;SDS011;36024;47.974;16.398;2023-11-22T10:50:43;4.90;;;4.50;;
50126;SDS011;36024;47.974;16.398;2023-11-22T10:53:21;5.20;;;4.70;;
50126;SDS011;36024;47.974;16.398;2023-11-22T10:55:53;5.70;;;5.20;;
50126;SDS011;36024;47.974;16.398;2023-11-22T10:58:24;6.40;;;5.20;;
50126;SDS011;36024;47.974;16.398;2023-11-22T11:00:52;5.50;;;5.00;;
50126;SDS011;36024;47.974;16.398;2023-11-22T11:03:20;5.13;;;4.73;;
50126;SDS011;36024;47.974;16.398;2023-11-22T11:05:50;6.13;;;5.53;;
50126;SDS011;36024;47.974;16.398;2023-11-22T11:08:19;6.30;;;5.70;;
50126;SDS011;36024;47.974;16.398;2023-11-22T11:10:47;5.37;;;4.87;;
50126;SDS011;36024;47.974;16.398;2023-11-22T11:13:15;5.60;;;5.10;;
50126;SDS011;36024;47.974;16.398;2023-11-22T11:15:44;5.80;;;5.30;;
50126;SDS011;36024;47.974;16.398;2023-11-22T11:18:15;5.57;;;5.07;;
50126;SDS011;36024;47.974;16.398;2023-11-22T11:23:19;5.27;;;4.77;;
50126;SDS011;36024;47.974;16.398;2023-11-22T11:25:49;5.43;;;4.50;;
50126;SDS011;36024;47.974;16.398;2023-11-22T11:28:17;5.23;;;4.73;;
50126;SDS011;36024;47.974;16.398;2023-11-22T11:30:49;5.50;;;5.00;;
50126;SDS011;36024;47.974;16.398;2023-11-22T11:33:26;6.50;;;5.80;;
50126;SDS011;36024;47.974;16.398;2023-11-22T11:35:54;6.50;;;5.70;;
50126;SDS011;36024;47.974;16.398;2023-11-22T11:38:27;6.70;;;6.07;;
50126;SDS011;36024;47.974;16.398;2023-11-22T11:41:01;6.40;;;5.80;;
50126;SDS011;36024;47.974;16.398;2023-11-22T11:43:43;6.60;;;6.00;;
50126;SDS011;36024;47.974;16.398;2023-11-22T11:46:15;6.17;;;5.67;;
50126;SDS011;36024;47.974;16.398;2023-11-22T11:48:47;6.90;;;6.20;;
50126;SDS011;36024;47.974;16.398;2023-11-22T11:51:15;7.10;;;6.40;;
50126;SDS011;36024;47.974;16.398;2023-11-22T11:53:43;7.43;;;6.73;;
50126;SDS011;36024;47.974;16.398;2023-11-22T11:56:11;7.97;;;7.17;;
50126;SDS011;36024;47.974;16.398;2023-11-22T11:58:38;7.47;;;6.77;;
50126;SDS011;36024;47.974;16.398;2023-11-22T12:01:05;8.37;;;7.13;;
50126;SDS011;36024;47.974;16.398;2023-11-22T12:03:35;8.53;;;7.23;;
50126;SDS011;36024;47.974;16.398;2023-11-22T12:06:02;8.13;;;7.33;;
50126;SDS011;36024;47.974;16.398;2023-11-22T12:08:30;8.60;;;7.70;;
50126;SDS011;36024;47.974;16.398;2023-11-22T12:11:03;8.70;;;7.80;;
50126;SDS011;36024;47.974;16.398;2023-11-22T12:13:37;8.97;;;8.07;;
50126;SDS011;36024;47.974;16.398;2023-11-22T12:16:16;10.27;;;9.17;;
50126;SDS011;36024;47.974;16.398;2023-11-22T12:18:45;11.10;;;9.63;;
50126;SDS011;36024;47.974;16.398;2023-11-22T12:21:15;25.00;;;17.27;;
50126;SDS011;36024;47.974;16.398;2023-11-22T12:23:42;11.10;;;10.00;;
50126;SDS011;36024;47.974;16.398;2023-11-22T12:26:11;9.57;;;8.60;;
50126;SDS011;36024;47.974;16.398;2023-11-22T12:28:40;9.57;;;8.67;;
50126;SDS011;36024;47.974;16.398;2023-11-22T12:31:18;10.27;;;9.27;;
50126;SDS011;36024;47.974;16.398;2023-11-22T12:33:45;11.67;;;9.63;;
50126;SDS011;36024;47.974;16.398;2023-11-22T12:36:18;10.83;;;9.73;;
50126;SDS011;36024;47.974;16.398;2023-11-22T12:38:45;10.53;;;9.53;;
50126;SDS011;36024;47.974;16.398;2023-11-22T12:41:11;11.30;;;10.17;;
50126;SDS011;36024;47.974;16.398;2023-11-22T12:43:40;11.83;;;10.23;;
50126;SDS011;36024;47.974;16.398;2023-11-22T12:46:16;11.33;;;10.23;;
50126;SDS011;36024;47.974;16.398;2023-11-22T12:48:44;12.23;;;10.00;;
50126;SDS011;36024;47.974;16.398;2023-11-22T12:51:17;11.60;;;10.40;;
50126;SDS011;36024;47.974;16.398;2023-11-22T12:53:50;11.20;;;10.10;;
50126;SDS011;36024;47.974;16.398;2023-11-22T12:56:17;10.27;;;9.03;;
50126;SDS011;36024;47.974;16.398;2023-11-22T12:58:44;11.00;;;9.80;;
50126;SDS011;36024;47.974;16.398;2023-11-22T13:01:11;11.03;;;9.80;;
50126;SDS011;36024;47.974;16.398;2023-11-22T13:03:37;11.00;;;9.90;;
50126;SDS011;36024;47.974;16.398;2023-11-22T13:06:04;10.20;;;9.17;;
50126;SDS011;36024;47.974;16.398;2023-11-22T13:08:32;10.30;;;9.30;;
50126;SDS011;36024;47.974;16.398;2023-11-22T13:11:01;10.90;;;9.80;;
50126;SDS011;36024;47.974;16.398;2023-11-22T13:13:27;10.63;;;9.57;;
50126;SDS011;36024;47.974;16.398;2023-11-22T13:15:56;11.73;;;10.50;;
50126;SDS011;36024;47.974;16.398;2023-11-22T13:18:23;11.03;;;9.67;;
50126;SDS011;36024;47.974;16.398;2023-11-22T13:20:51;11.67;;;10.40;;
50126;SDS011;36024;47.974;16.398;2023-11-22T13:23:18;12.93;;;9.57;;
50126;SDS011;36024;47.974;16.398;2023-11-22T13:25:45;10.80;;;9.70;;
50126;SDS011;36024;47.974;16.398;2023-11-22T13:28:12;10.97;;;9.87;;
50126;SDS011;36024;47.974;16.398;2023-11-22T13:30:43;10.87;;;9.83;;
50126;SDS011;36024;47.974;16.398;2023-11-22T13:33:10;11.37;;;10.17;;
50126;SDS011;36024;47.974;16.398;2023-11-22T13:35:38;12.17;;;10.87;;
50126;SDS011;36024;47.974;16.398;2023-11-22T13:38:05;13.37;;;12.00;;
50126;SDS011;36024;47.974;16.398;2023-11-22T13:40:38;17.27;;;14.83;;
50126;SDS011;36024;47.974;16.398;2023-11-22T13:43:12;11.73;;;10.53;;
50126;SDS011;36024;47.974;16.398;2023-11-22T13:45:39;12.87;;;9.87;;
50126;SDS011;36024;47.974;16.398;2023-11-22T13:48:08;11.10;;;10.00;;
50126;SDS011;36024;47.974;16.398;2023-11-22T13:50:36;10.47;;;9.37;;
50126;SDS011;36024;47.974;16.398;2023-11-22T13:53:04;11.10;;;9.07;;
50126;SDS011;36024;47.974;16.398;2023-11-22T13:55:31;10.77;;;9.67;;
50126;SDS011;36024;47.974;16.398;2023-11-22T13:57:58;10.50;;;9.40;;
50126;SDS011;36024;47.974;16.398;2023-11-22T14:00:27;10.27;;;9.13;;
50126;SDS011;36024;47.974;16.398;2023-11-22T14:02:59;11.00;;;9.90;;
50126;SDS011;36024;47.974;16.398;2023-11-22T14:05:35;11.33;;;10.13;;
50126;SDS011;36024;47.974;16.398;2023-11-22T14:08:04;11.70;;;10.13;;
50126;SDS011;36024;47.974;16.398;2023-11-22T14:10:33;12.43;;;11.13;;
50126;SDS011;36024;47.974;16.398;2023-11-22T14:12:59;11.17;;;10.07;;
50126;SDS011;36024;47.974;16.398;2023-11-22T14:15:28;13.07;;;11.50;;
50126;SDS011;36024;47.974;16.398;2023-11-22T14:17:55;12.13;;;10.90;;
50126;SDS011;36024;47.974;16.398;2023-11-22T14:20:22;13.43;;;12.03;;
50126;SDS011;36024;47.974;16.398;2023-11-22T14:22:51;12.90;;;11.60;;
50126;SDS011;36024;47.974;16.398;2023-11-22T14:25:18;13.30;;;11.97;;
50126;SDS011;36024;47.974;16.398;2023-11-22T14:27:46;13.10;;;11.73;;
50126;SDS011;36024;47.974;16.398;2023-11-22T14:30:14;13.23;;;11.80;;
50126;SDS011;36024;47.974;16.398;2023-11-22T14:32:43;12.43;;;11.23;;
50126;SDS011;36024;47.974;16.398;2023-11-22T14:35:10;12.60;;;11.30;;
50126;SDS011;36024;47.974;16.398;2023-11-22T14:37:39;13.00;;;11.70;;
50126;SDS011;36024;47.974;16.398;2023-11-22T14:40:09;12.37;;;11.10;;
50126;SDS011;36024;47.974;16.398;2023-11-22T14:42:43;12.67;;;11.23;;